createdAt,value
2018-09-05T00:01:44.383Z,33.10
2018-09-05T00:04:11.948Z,29.90
2018-09-05T00:06:39.562Z,30.80
2018-09-05T00:09:08.230Z,33.00
2018-09-05T00:11:36.384Z,33.67
2018-09-05T00:14:04.048Z,34.77
2018-09-05T00:16:31.611Z,34.60
2018-09-05T00:18:59.627Z,31.67
2018-09-05T00:21:27.393Z,32.47
2018-09-05T00:23:55.266Z,33.43
2018-09-05T00:26:22.969Z,35.50
2018-09-05T00:28:50.720Z,34.17
2018-09-05T00:31:18.500Z,32.40
2018-09-05T00:33:46.230Z,34.20
2018-09-05T00:36:14.070Z,34.87
2018-09-05T00:38:41.970Z,38.40
2018-09-05T00:41:09.866Z,37.20
2018-09-05T00:43:37.865Z,36.93
2018-09-05T00:46:05.786Z,33.60
2018-09-05T00:48:33.739Z,32.40
2018-09-05T00:51:01.632Z,31.23
2018-09-05T00:53:29.574Z,33.53
2018-09-05T00:55:57.439Z,33.27
2018-09-05T00:58:25.275Z,35.60
2018-09-05T01:00:53.228Z,36.40
2018-09-05T01:03:21.223Z,31.83
2018-09-05T01:05:49.084Z,35.13
2018-09-05T01:08:17.009Z,38.73
2018-09-05T01:10:44.876Z,34.63
2018-09-05T01:13:12.787Z,39.07
2018-09-05T01:15:41.204Z,44.13
2018-09-05T01:18:09.347Z,43.27
2018-09-05T01:20:37.542Z,44.77
2018-09-05T01:23:05.473Z,41.57
2018-09-05T01:25:33.293Z,39.70
2018-09-05T01:28:01.194Z,38.90
2018-09-05T01:30:29.266Z,39.10
2018-09-05T01:32:58.243Z,42.23
2018-09-05T01:35:26.517Z,38.30
2018-09-05T01:37:54.579Z,41.50
2018-09-05T01:40:22.410Z,42.70
2018-09-05T01:42:50.371Z,40.90
2018-09-05T01:45:18.210Z,41.30
2018-09-05T01:47:46.014Z,44.10
2018-09-05T01:50:13.895Z,42.50
2018-09-05T01:52:41.662Z,42.33
2018-09-05T01:55:09.748Z,42.80
2018-09-05T01:57:37.729Z,49.20
2018-09-05T02:00:10.029Z,44.80
2018-09-05T02:02:37.894Z,40.27
2018-09-05T02:05:05.915Z,39.63
2018-09-05T02:07:33.796Z,42.93
2018-09-05T02:10:01.630Z,39.97
2018-09-05T02:12:29.782Z,40.53
2018-09-05T02:14:57.574Z,39.23
2018-09-05T02:17:25.447Z,36.93
2018-09-05T02:19:53.354Z,43.23
2018-09-05T02:22:21.242Z,41.27
2018-09-05T02:24:49.187Z,41.07
2018-09-05T02:27:17.198Z,39.07
2018-09-05T02:29:45.079Z,38.93
2018-09-05T02:32:13.042Z,42.43
2018-09-05T02:34:40.973Z,39.37
2018-09-05T02:37:08.882Z,42.33
2018-09-05T02:39:36.816Z,38.93
2018-09-05T02:42:04.715Z,41.03
2018-09-05T02:44:32.767Z,40.43
2018-09-05T02:47:00.694Z,39.97
2018-09-05T02:49:28.593Z,43.80
2018-09-05T02:51:56.485Z,38.80
2018-09-05T02:54:24.418Z,41.07
2018-09-05T02:56:52.237Z,40.50
2018-09-05T02:59:20.375Z,42.40
2018-09-05T03:01:48.259Z,38.43
2018-09-05T03:04:16.142Z,35.07
2018-09-05T03:06:44.397Z,41.33
2018-09-05T03:09:12.376Z,41.00
2018-09-05T03:11:40.758Z,38.43
2018-09-05T03:14:08.618Z,38.43
2018-09-05T03:16:36.567Z,40.57
2018-09-05T03:19:04.614Z,41.40
2018-09-05T03:21:32.588Z,35.93
2018-09-05T03:24:00.475Z,38.33
2018-09-05T03:26:28.323Z,37.60
2018-09-05T03:28:56.203Z,37.17
2018-09-05T03:31:24.092Z,34.70
2018-09-05T03:33:51.994Z,39.07
2018-09-05T03:36:20.054Z,37.90
2018-09-05T03:38:47.967Z,37.23
2018-09-05T03:41:16.171Z,38.23
2018-09-05T03:43:44.614Z,34.70
2018-09-05T03:46:12.601Z,35.23
2018-09-05T03:48:40.484Z,37.10
2018-09-05T03:51:08.414Z,34.37
2018-09-05T03:53:36.994Z,33.70
2018-09-05T03:56:05.056Z,34.93
2018-09-05T03:58:33.021Z,33.23
2018-09-05T04:01:00.971Z,35.93
2018-09-05T04:03:28.876Z,35.37
2018-09-05T04:05:56.875Z,34.27
2018-09-05T04:08:24.903Z,34.53
2018-09-05T04:10:52.795Z,33.87
2018-09-05T04:13:20.666Z,32.13
2018-09-05T04:15:48.493Z,33.40
2018-09-05T04:18:16.540Z,33.83
2018-09-05T04:20:44.481Z,36.17
2018-09-05T04:23:12.470Z,34.67
2018-09-05T04:25:40.415Z,35.63
2018-09-05T04:28:08.270Z,37.63
2018-09-05T04:30:36.081Z,34.70
2018-09-05T04:33:04.074Z,38.07
2018-09-05T04:35:32.024Z,41.60
2018-09-05T04:38:00.015Z,39.27
2018-09-05T04:40:27.986Z,41.83
2018-09-05T04:42:55.858Z,38.03
2018-09-05T04:45:23.787Z,38.43
2018-09-05T04:47:51.682Z,39.40
2018-09-05T04:50:19.761Z,38.60
2018-09-05T04:52:47.794Z,42.57
2018-09-05T04:55:15.697Z,42.40
2018-09-05T04:57:43.611Z,40.63
2018-09-05T05:00:11.580Z,39.57
2018-09-05T05:02:39.539Z,42.67
2018-09-05T05:05:07.491Z,39.03
2018-09-05T05:07:35.489Z,38.73
2018-09-05T05:10:03.456Z,37.23
2018-09-05T05:12:31.264Z,42.77
2018-09-05T05:14:59.393Z,39.80
2018-09-05T05:17:27.301Z,39.30
2018-09-05T05:19:55.137Z,37.40
2018-09-05T05:22:23.117Z,37.80
2018-09-05T05:24:50.979Z,35.50
2018-09-05T05:27:18.962Z,39.83
2018-09-05T05:29:46.810Z,39.47
2018-09-05T05:32:14.827Z,37.70
2018-09-05T05:34:42.677Z,39.97
2018-09-05T05:37:10.532Z,38.83
2018-09-05T05:39:38.382Z,36.37
2018-09-05T05:42:06.422Z,36.67
2018-09-05T05:44:34.695Z,34.73
2018-09-05T05:47:02.472Z,38.57
2018-09-05T05:49:30.278Z,36.03
2018-09-05T05:51:58.274Z,35.27
2018-09-05T05:54:26.170Z,38.07
2018-09-05T05:56:54.127Z,34.67
2018-09-05T05:59:22.042Z,33.27
2018-09-05T06:01:50.024Z,32.53
2018-09-05T06:04:18.003Z,34.07
2018-09-05T06:06:45.882Z,36.13
2018-09-05T06:09:13.699Z,32.67
2018-09-05T06:11:41.711Z,32.30
2018-09-05T06:14:09.630Z,33.07
2018-09-05T06:16:37.513Z,31.33
2018-09-05T06:19:05.389Z,33.17
2018-09-05T06:21:33.250Z,32.10
2018-09-05T06:24:01.188Z,31.73
2018-09-05T06:26:28.927Z,32.33
2018-09-05T06:28:56.867Z,30.23
2018-09-05T06:31:24.733Z,31.03
2018-09-05T06:33:52.597Z,30.50
2018-09-05T06:36:20.470Z,30.97
2018-09-05T06:38:48.339Z,31.00
2018-09-05T06:41:16.219Z,31.53
2018-09-05T06:43:44.100Z,30.03
2018-09-05T06:46:11.951Z,29.57
2018-09-05T06:48:40.193Z,34.37
2018-09-05T06:51:08.128Z,31.73
2018-09-05T06:53:37.513Z,37.07
2018-09-05T06:56:05.325Z,32.27
2018-09-05T06:58:33.698Z,30.93
2018-09-05T07:01:01.645Z,30.03
2018-09-05T07:03:29.671Z,28.30
2018-09-05T07:05:57.715Z,29.97
2018-09-05T07:08:25.600Z,29.53
2018-09-05T07:10:53.490Z,29.97
2018-09-05T07:13:21.341Z,30.40
2018-09-05T07:15:49.486Z,29.93
2018-09-05T07:18:17.243Z,26.83
2018-09-05T07:20:45.327Z,27.60
2018-09-05T07:23:13.131Z,28.03
2018-09-05T07:25:41.156Z,27.23
2018-09-05T07:28:09.073Z,27.00
2018-09-05T07:30:37.034Z,26.67
2018-09-05T07:33:04.958Z,28.00
2018-09-05T07:35:32.838Z,27.40
2018-09-05T07:38:00.726Z,25.77
2018-09-05T07:40:28.856Z,28.17
2018-09-05T07:42:56.758Z,26.03
2018-09-05T07:45:24.552Z,27.70
2018-09-05T07:47:52.399Z,26.90
2018-09-05T07:50:20.139Z,26.10
2018-09-05T07:52:48.018Z,24.17
2018-09-05T07:55:15.963Z,24.03
2018-09-05T07:57:43.906Z,24.50
2018-09-05T08:00:11.905Z,23.93
2018-09-05T08:02:39.787Z,22.83
2018-09-05T08:05:07.827Z,25.00
2018-09-05T08:07:35.717Z,23.87
2018-09-05T08:10:03.722Z,24.60
2018-09-05T08:12:31.726Z,23.80
2018-09-05T08:14:59.720Z,26.03
2018-09-05T08:17:27.555Z,26.63
2018-09-05T08:19:55.487Z,25.30
2018-09-05T08:22:23.289Z,24.27
2018-09-05T08:24:51.282Z,24.23
2018-09-05T08:27:22.047Z,23.80
2018-09-05T08:29:50.535Z,22.27
2018-09-05T08:32:18.334Z,23.75
2018-09-05T08:34:46.315Z,23.35
2018-09-05T08:37:14.241Z,23.70
2018-09-05T08:39:42.094Z,23.00
2018-09-05T08:42:10.265Z,22.67
2018-09-05T08:44:38.482Z,22.05
2018-09-05T08:47:06.234Z,25.70
2018-09-05T08:49:34.037Z,25.50
2018-09-05T08:52:01.991Z,24.55
2018-09-05T08:54:29.875Z,23.83
2018-09-05T08:56:58.120Z,27.45
2018-09-05T08:59:26.035Z,27.10
2018-09-05T09:01:53.906Z,24.98
2018-09-05T09:04:21.831Z,21.87
2018-09-05T09:06:49.677Z,28.40
2018-09-05T09:09:17.490Z,26.25
2018-09-05T09:11:45.391Z,24.45
2018-09-05T09:14:13.170Z,26.45
2018-09-05T09:16:41.133Z,24.02
2018-09-05T09:19:09.031Z,25.68
2018-09-05T09:21:36.933Z,26.55
2018-09-05T09:24:04.974Z,27.15
2018-09-05T09:26:32.795Z,27.13
2018-09-05T09:29:00.670Z,27.50
2018-09-05T09:31:28.627Z,27.73
2018-09-05T09:33:56.482Z,25.70
2018-09-05T09:36:24.310Z,26.15
2018-09-05T09:38:52.235Z,26.02
2018-09-05T09:41:20.050Z,24.60
2018-09-05T09:43:48.589Z,23.62
2018-09-05T09:46:16.782Z,24.25
2018-09-05T09:48:44.768Z,22.22
2018-09-05T09:51:12.574Z,23.75
2018-09-05T09:53:40.396Z,25.12
2018-09-05T09:56:08.258Z,24.45
2018-09-05T09:58:36.141Z,24.50
2018-09-05T10:01:09.489Z,21.77
2018-09-05T10:03:43.069Z,23.15
2018-09-05T10:06:16.146Z,21.12
2018-09-05T10:08:49.684Z,20.08
2018-09-05T10:11:18.435Z,23.57
2018-09-05T10:13:51.666Z,23.32
2018-09-05T10:16:25.118Z,23.20
2018-09-05T10:18:53.550Z,25.05
2018-09-05T10:21:21.694Z,24.32
2018-09-05T10:23:49.795Z,25.77
2018-09-05T10:26:17.593Z,28.40
2018-09-05T10:28:45.480Z,27.00
2018-09-05T10:31:13.263Z,27.67
2018-09-05T10:33:41.142Z,25.48
2018-09-05T10:36:08.995Z,23.75
2018-09-05T10:38:36.781Z,21.75
2018-09-05T10:41:04.542Z,19.95
2018-09-05T10:43:32.146Z,19.35
2018-09-05T10:45:59.869Z,19.15
2018-09-05T10:48:27.435Z,20.37
2018-09-05T10:50:55.094Z,17.87
2018-09-05T10:53:22.684Z,17.40
2018-09-05T10:55:50.433Z,16.10
2018-09-05T10:58:18.169Z,15.98
2018-09-05T11:00:45.852Z,17.35
2018-09-05T11:03:13.529Z,18.05
2018-09-05T11:05:41.143Z,16.95
2018-09-05T11:08:08.731Z,15.53
2018-09-05T11:10:36.581Z,16.65
2018-09-05T11:13:04.301Z,16.87
2018-09-05T11:15:31.930Z,16.73
2018-09-05T11:17:59.554Z,16.37
2018-09-05T11:20:27.362Z,17.37
2018-09-05T11:22:55.018Z,15.35
2018-09-05T11:25:22.725Z,15.93
2018-09-05T11:27:50.359Z,16.32
2018-09-05T11:30:17.974Z,15.70
2018-09-05T11:32:45.550Z,16.12
2018-09-05T11:35:13.121Z,15.13
2018-09-05T11:37:40.821Z,17.05
2018-09-05T11:40:09.269Z,14.05
2018-09-05T11:42:36.885Z,14.28
2018-09-05T11:45:04.513Z,15.45
2018-09-05T11:47:32.302Z,13.35
2018-09-05T11:49:59.890Z,14.83
2018-09-05T11:52:27.480Z,16.50
2018-09-05T11:54:55.091Z,14.75
2018-09-05T11:57:22.671Z,14.63
2018-09-05T11:59:50.311Z,16.15
2018-09-05T12:02:17.974Z,16.12
2018-09-05T12:04:45.554Z,15.25
2018-09-05T12:07:13.186Z,16.57
2018-09-05T12:09:40.773Z,15.88
2018-09-05T12:12:08.735Z,15.45
2018-09-05T12:14:36.318Z,14.30
2018-09-05T12:17:04.018Z,14.05
2018-09-05T12:19:31.689Z,15.45
2018-09-05T12:21:59.374Z,14.60
2018-09-05T12:24:27.003Z,14.83
2018-09-05T12:26:54.665Z,15.48
2018-09-05T12:29:22.358Z,15.32
2018-09-05T12:31:49.985Z,14.63
2018-09-05T12:34:17.653Z,16.02
2018-09-05T12:36:45.275Z,17.30
2018-09-05T12:39:13.900Z,16.93
2018-09-05T12:41:42.207Z,15.83
2018-09-05T12:44:10.560Z,15.83
2018-09-05T12:46:38.447Z,14.58
2018-09-05T12:49:06.193Z,15.23
2018-09-05T12:51:33.861Z,13.53
2018-09-05T12:54:01.517Z,14.83
2018-09-05T12:56:29.192Z,14.87
2018-09-05T12:58:56.838Z,13.98
2018-09-05T13:01:24.548Z,13.53
2018-09-05T13:03:52.289Z,13.88
2018-09-05T13:06:19.900Z,14.10
2018-09-05T13:08:47.650Z,14.75
2018-09-05T13:11:15.473Z,13.75
2018-09-05T13:13:43.081Z,14.85
2018-09-05T13:16:10.672Z,13.62
2018-09-05T13:18:39.044Z,13.72
2018-09-05T13:21:06.629Z,14.73
2018-09-05T13:23:34.224Z,13.40
2018-09-05T13:26:01.866Z,14.10
2018-09-05T13:28:29.463Z,13.75
2018-09-05T13:30:57.069Z,13.08
2018-09-05T13:33:24.696Z,14.73
2018-09-05T13:35:52.412Z,16.25
2018-09-05T13:38:20.105Z,15.23
2018-09-05T13:40:47.741Z,14.47
2018-09-05T13:43:15.386Z,15.08
2018-09-05T13:45:43.142Z,18.67
2018-09-05T13:48:10.753Z,16.23
2018-09-05T13:50:38.458Z,15.85
2018-09-05T13:53:06.299Z,16.57
2018-09-05T13:55:33.937Z,15.30
2018-09-05T13:58:01.545Z,15.55
2018-09-05T14:00:29.206Z,14.28
2018-09-05T14:02:56.868Z,15.53
2018-09-05T14:05:24.508Z,15.58
2018-09-05T14:07:52.125Z,15.25
2018-09-05T14:10:19.760Z,14.45
2018-09-05T14:12:47.355Z,15.08
2018-09-05T14:15:15.743Z,15.20
2018-09-05T14:17:43.765Z,15.72
2018-09-05T14:20:11.398Z,14.15
2018-09-05T14:22:39.045Z,14.23
2018-09-05T14:25:06.705Z,15.38
2018-09-05T14:27:34.370Z,15.75
2018-09-05T14:30:02.006Z,14.60
2018-09-05T14:32:29.638Z,15.40
2018-09-05T14:34:57.373Z,18.30
2018-09-05T14:37:24.955Z,16.32
2018-09-05T14:39:52.624Z,16.42
2018-09-05T14:42:20.225Z,17.07
2018-09-05T14:44:47.834Z,16.73
2018-09-05T14:47:15.486Z,15.78
2018-09-05T14:49:43.130Z,17.25
2018-09-05T14:52:10.747Z,15.15
2018-09-05T14:54:38.355Z,14.60
2018-09-05T14:57:06.009Z,14.25
2018-09-05T14:59:33.641Z,14.60
2018-09-05T15:02:01.359Z,13.30
2018-09-05T15:04:28.961Z,12.73
2018-09-05T15:06:56.629Z,14.33
2018-09-05T15:09:24.458Z,14.23
2018-09-05T15:11:52.145Z,13.05
2018-09-05T15:14:22.651Z,13.32
2018-09-05T15:16:50.275Z,14.25
2018-09-05T15:19:17.945Z,14.73
2018-09-05T15:21:45.662Z,14.53
2018-09-05T15:24:13.340Z,16.27
2018-09-05T15:26:40.929Z,15.95
2018-09-05T15:29:08.491Z,17.65
2018-09-05T15:31:36.146Z,18.00
2018-09-05T15:34:03.730Z,16.80
2018-09-05T15:36:31.325Z,17.52
2018-09-05T15:38:59.039Z,18.57
2018-09-05T15:41:26.755Z,17.65
2018-09-05T15:43:54.406Z,17.87
2018-09-05T15:46:22.048Z,18.05
2018-09-05T15:48:49.690Z,17.95
2018-09-05T15:51:17.378Z,18.35
2018-09-05T15:53:45.096Z,18.40
2018-09-05T15:56:12.682Z,18.55
2018-09-05T15:58:40.403Z,16.42
2018-09-05T16:01:08.148Z,15.68
2018-09-05T16:03:35.792Z,18.07
2018-09-05T16:06:03.420Z,14.70
2018-09-05T16:08:31.055Z,17.35
2018-09-05T16:10:58.696Z,16.02
2018-09-05T16:13:26.284Z,15.88
2018-09-05T16:15:53.903Z,26.80
2018-09-05T16:18:21.522Z,14.58
2018-09-05T16:20:49.098Z,15.65
2018-09-05T16:23:16.895Z,14.78
2018-09-05T16:25:44.497Z,14.13
2018-09-05T16:28:12.143Z,14.07
2018-09-05T16:30:39.780Z,13.33
2018-09-05T16:33:07.429Z,12.85
2018-09-05T16:35:35.940Z,13.23
2018-09-05T16:38:03.794Z,12.73
2018-09-05T16:40:31.433Z,12.43
2018-09-05T16:42:59.075Z,13.10
2018-09-05T16:45:26.797Z,12.80
2018-09-05T16:47:54.461Z,12.57
2018-09-05T16:50:22.535Z,13.20
2018-09-05T16:52:50.156Z,13.23
2018-09-05T16:55:17.888Z,12.47
2018-09-05T16:57:45.474Z,13.33
2018-09-05T17:00:13.212Z,12.30
2018-09-05T17:02:40.804Z,12.37
2018-09-05T17:05:08.494Z,13.00
2018-09-05T17:07:36.114Z,12.60
2018-09-05T17:10:03.826Z,12.37
2018-09-05T17:12:31.421Z,12.10
2018-09-05T17:14:59.117Z,12.30
2018-09-05T17:17:26.738Z,11.63
2018-09-05T17:19:54.828Z,12.60
2018-09-05T17:22:22.632Z,12.00
2018-09-05T17:24:50.262Z,12.30
2018-09-05T17:27:18.020Z,12.57
2018-09-05T17:29:45.627Z,11.50
2018-09-05T17:32:13.276Z,11.97
2018-09-05T17:34:40.945Z,11.63
2018-09-05T17:37:08.598Z,10.77
2018-09-05T17:39:36.221Z,10.87
2018-09-05T17:42:03.884Z,11.23
2018-09-05T17:44:31.522Z,11.17
2018-09-05T17:46:59.575Z,10.70
2018-09-05T17:49:27.187Z,11.03
2018-09-05T17:51:54.868Z,11.37
2018-09-05T17:54:22.844Z,10.83
2018-09-05T17:56:50.625Z,10.90
2018-09-05T17:59:18.216Z,10.93
2018-09-05T18:01:45.949Z,12.13
2018-09-05T18:04:13.593Z,11.30
2018-09-05T18:06:41.214Z,11.17
2018-09-05T18:09:09.738Z,10.73
2018-09-05T18:11:37.373Z,10.13
2018-09-05T18:14:05.103Z,10.13
2018-09-05T18:16:32.769Z,9.97
2018-09-05T18:19:00.804Z,8.97
2018-09-05T18:21:28.748Z,9.80
2018-09-05T18:23:57.187Z,8.53
2018-09-05T18:26:24.795Z,8.63
2018-09-05T18:28:52.552Z,9.00
2018-09-05T18:31:20.215Z,9.47
2018-09-05T18:33:47.863Z,9.40
2018-09-05T18:36:15.508Z,8.50
2018-09-05T18:38:43.140Z,8.60
2018-09-05T18:41:10.842Z,8.60
2018-09-05T18:43:38.535Z,8.23
2018-09-05T18:46:06.233Z,8.13
2018-09-05T18:48:33.905Z,8.43
2018-09-05T18:51:01.940Z,7.57
2018-09-05T18:53:29.544Z,8.00
2018-09-05T18:55:57.445Z,8.07
2018-09-05T18:58:25.092Z,7.27
2018-09-05T19:00:52.810Z,7.20
2018-09-05T19:03:20.448Z,7.80
2018-09-05T19:05:48.066Z,8.07
2018-09-05T19:08:15.684Z,7.87
2018-09-05T19:10:43.324Z,8.37
2018-09-05T19:13:10.998Z,8.23
2018-09-05T19:15:38.602Z,8.37
2018-09-05T19:18:06.234Z,7.47
2018-09-05T19:20:33.842Z,8.47
2018-09-05T19:23:01.676Z,7.73
2018-09-05T19:25:29.342Z,7.67
2018-09-05T19:27:56.947Z,7.10
2018-09-05T19:30:24.598Z,7.27
2018-09-05T19:32:52.232Z,7.53
2018-09-05T19:35:19.917Z,7.23
2018-09-05T19:37:47.617Z,6.40
2018-09-05T19:40:15.225Z,7.40
2018-09-05T19:42:42.936Z,7.23
2018-09-05T19:45:10.538Z,6.90
2018-09-05T19:47:38.145Z,7.83
2018-09-05T19:50:06.118Z,7.07
2018-09-05T19:52:34.195Z,7.20
2018-09-05T19:55:01.866Z,7.97
2018-09-05T19:57:29.605Z,7.70
2018-09-05T19:59:57.258Z,7.40
2018-09-05T20:02:25.000Z,7.13
2018-09-05T20:04:52.754Z,8.23
2018-09-05T20:07:20.425Z,7.33
2018-09-05T20:09:48.317Z,7.50
2018-09-05T20:12:15.895Z,7.97
2018-09-05T20:14:43.522Z,8.33
2018-09-05T20:17:11.198Z,7.77
2018-09-05T20:19:39.366Z,7.50
2018-09-05T20:22:08.983Z,6.90
2018-09-05T20:24:36.832Z,7.73
2018-09-05T20:27:05.008Z,7.27
2018-09-05T20:29:32.682Z,6.90
2018-09-05T20:32:00.463Z,7.30
2018-09-05T20:34:29.002Z,7.50
2018-09-05T20:36:57.065Z,7.33
2018-09-05T20:39:24.731Z,7.73
2018-09-05T20:41:52.422Z,7.17
2018-09-05T20:44:20.017Z,7.33
2018-09-05T20:46:47.649Z,7.03
2018-09-05T20:49:15.220Z,7.30
2018-09-05T20:51:42.766Z,7.03
2018-09-05T20:54:10.426Z,7.53
2018-09-05T20:56:38.103Z,6.97
2018-09-05T20:59:05.937Z,8.10
2018-09-05T21:01:34.165Z,7.17
2018-09-05T21:04:01.743Z,7.10
2018-09-05T21:06:29.353Z,6.60
2018-09-05T21:08:56.965Z,7.10
2018-09-05T21:11:24.594Z,7.20
2018-09-05T21:13:52.225Z,6.67
2018-09-05T21:16:19.908Z,7.57
2018-09-05T21:18:47.540Z,7.23
2018-09-05T21:21:15.216Z,7.27
2018-09-05T21:23:42.780Z,6.23
2018-09-05T21:26:10.419Z,7.60
2018-09-05T21:28:38.038Z,7.77
2018-09-05T21:31:05.701Z,7.43
2018-09-05T21:33:33.305Z,7.33
2018-09-05T21:36:00.884Z,6.80
2018-09-05T21:38:28.490Z,7.17
2018-09-05T21:40:56.158Z,7.30
2018-09-05T21:43:23.797Z,7.47
2018-09-05T21:45:51.443Z,7.97
2018-09-05T21:48:19.124Z,6.80
2018-09-05T21:50:46.693Z,7.10
2018-09-05T21:53:14.353Z,7.70
2018-09-05T21:55:41.994Z,7.07
2018-09-05T21:58:09.649Z,7.37
2018-09-05T22:00:37.329Z,7.67
2018-09-05T22:03:05.093Z,7.23
2018-09-05T22:05:32.705Z,7.83
2018-09-05T22:08:00.312Z,6.57
2018-09-05T22:10:27.958Z,7.37
2018-09-05T22:12:55.632Z,6.90
2018-09-05T22:15:23.282Z,7.93
2018-09-05T22:17:50.873Z,6.80
2018-09-05T22:20:18.518Z,7.10
2018-09-05T22:22:46.118Z,6.83
2018-09-05T22:25:13.745Z,7.13
2018-09-05T22:27:41.490Z,7.77
2018-09-05T22:30:09.079Z,6.87
2018-09-05T22:32:36.729Z,7.50
2018-09-05T22:35:04.623Z,7.77
2018-09-05T22:37:32.253Z,6.93
2018-09-05T22:39:59.905Z,6.97
2018-09-05T22:42:27.570Z,7.60
2018-09-05T22:46:10.216Z,7.67
2018-09-05T22:49:53.286Z,7.07
2018-09-05T22:54:44.137Z,7.23
2018-09-05T22:58:29.518Z,6.50
2018-09-05T23:03:12.666Z,8.10
2018-09-05T23:05:51.650Z,6.87
2018-09-05T23:08:32.276Z,7.20
2018-09-05T23:11:11.307Z,6.67
2018-09-05T23:13:50.271Z,6.80
2018-09-05T23:16:29.127Z,7.30
2018-09-05T23:19:36.111Z,7.70
2018-09-05T23:22:03.762Z,7.23
2018-09-05T23:24:31.332Z,7.33
2018-09-05T23:26:59.002Z,6.97
2018-09-05T23:29:26.618Z,7.03
2018-09-05T23:31:54.231Z,7.83
2018-09-05T23:34:21.863Z,7.27
2018-09-05T23:36:49.510Z,7.73
2018-09-05T23:39:17.137Z,8.13
2018-09-05T23:41:44.729Z,7.57
2018-09-05T23:44:12.323Z,6.97
2018-09-05T23:46:39.936Z,7.23
2018-09-05T23:49:07.627Z,7.57
2018-09-05T23:51:36.175Z,7.33
2018-09-05T23:54:03.769Z,7.87
2018-09-05T23:56:31.489Z,6.90
2018-09-05T23:59:03.596Z,6.63
